sensor_id;sensor_type;location;lat;lon;timestamp;pressure;altitude;pressure_sealevel;temperature;humidity
35778;BME280;21899;42.662;23.316;2022-09-09T00:00:47;94661.34;;;18.89;83.61
35778;BME280;21899;42.662;23.316;2022-09-09T00:03:18;94655.16;;;18.88;83.27
35778;BME280;21899;42.662;23.316;2022-09-09T00:08:53;94658.28;;;18.87;83.02
35778;BME280;21899;42.662;23.316;2022-09-09T00:11:43;94659.06;;;18.87;82.69
35778;BME280;21899;42.662;23.316;2022-09-09T00:14:39;94662.31;;;18.82;82.88
35778;BME280;21899;42.662;23.316;2022-09-09T00:17:18;94656.97;;;18.79;83.44
35778;BME280;21899;42.662;23.316;2022-09-09T00:20:01;94655.44;;;18.78;83.40
35778;BME280;21899;42.662;23.316;2022-09-09T00:22:30;94647.63;;;18.80;83.92
35778;BME280;21899;42.662;23.316;2022-09-09T00:25:12;94636.97;;;18.73;83.90
35778;BME280;21899;42.662;23.316;2022-09-09T00:27:46;94633.19;;;18.70;84.57
35778;BME280;21899;42.662;23.316;2022-09-09T00:30:21;94630.38;;;18.74;84.81
35778;BME280;21899;42.662;23.316;2022-09-09T00:33:14;94629.63;;;18.73;84.93
35778;BME280;21899;42.662;23.316;2022-09-09T00:35:53;94625.47;;;18.69;85.01
35778;BME280;21899;42.662;23.316;2022-09-09T00:38:36;94619.78;;;18.51;86.53
35778;BME280;21899;42.662;23.316;2022-09-09T00:41:19;94613.97;;;18.36;87.41
35778;BME280;21899;42.662;23.316;2022-09-09T00:43:55;94619.19;;;18.14;88.63
35778;BME280;21899;42.662;23.316;2022-09-09T00:46:37;94617.19;;;17.86;90.09
35778;BME280;21899;42.662;23.316;2022-09-09T00:59:55;94618.69;;;17.87;89.05
35778;BME280;21899;42.662;23.316;2022-09-09T01:02:28;94614.13;;;18.00;88.66
35778;BME280;21899;42.662;23.316;2022-09-09T01:05:01;94620.94;;;18.05;88.34
35778;BME280;21899;42.662;23.316;2022-09-09T01:07:30;94628.47;;;18.13;88.69
35778;BME280;21899;42.662;23.316;2022-09-09T01:09:57;94616.78;;;18.16;88.44
35778;BME280;21899;42.662;23.316;2022-09-09T01:15:12;94614.28;;;18.09;89.66
35778;BME280;21899;42.662;23.316;2022-09-09T01:28:33;94612.81;;;18.05;89.29
35778;BME280;21899;42.662;23.316;2022-09-09T01:31:03;94608.19;;;18.05;89.34
35778;BME280;21899;42.662;23.316;2022-09-09T01:33:29;94612.59;;;17.99;89.53
35778;BME280;21899;42.662;23.316;2022-09-09T01:36:09;94611.50;;;17.97;89.65
35778;BME280;21899;42.662;23.316;2022-09-09T01:38:36;94618.88;;;17.96;89.59
35778;BME280;21899;42.662;23.316;2022-09-09T01:41:02;94624.28;;;17.96;89.40
35778;BME280;21899;42.662;23.316;2022-09-09T01:43:28;94625.13;;;17.93;89.61
35778;BME280;21899;42.662;23.316;2022-09-09T01:45:56;94632.41;;;17.80;90.83
35778;BME280;21899;42.662;23.316;2022-09-09T01:48:25;94626.47;;;17.85;89.96
35778;BME280;21899;42.662;23.316;2022-09-09T01:50:51;94638.34;;;17.91;89.44
35778;BME280;21899;42.662;23.316;2022-09-09T01:53:18;94635.28;;;17.89;89.65
35778;BME280;21899;42.662;23.316;2022-09-09T01:56:05;94642.88;;;17.78;91.04
35778;BME280;21899;42.662;23.316;2022-09-09T01:59:05;94644.44;;;17.79;90.63
35778;BME280;21899;42.662;23.316;2022-09-09T02:01:56;94639.00;;;17.79;90.74
35778;BME280;21899;42.662;23.316;2022-09-09T02:06:56;94625.13;;;17.77;90.96
35778;BME280;21899;42.662;23.316;2022-09-09T02:09:26;94632.06;;;17.78;91.50
35778;BME280;21899;42.662;23.316;2022-09-09T02:12:00;94631.06;;;17.72;91.32
35778;BME280;21899;42.662;23.316;2022-09-09T02:14:32;94624.63;;;17.66;91.44
35778;BME280;21899;42.662;23.316;2022-09-09T02:17:08;94611.03;;;17.70;91.10
35778;BME280;21899;42.662;23.316;2022-09-09T02:19:42;94608.56;;;17.59;92.01
35778;BME280;21899;42.662;23.316;2022-09-09T02:22:11;94609.75;;;17.58;92.27
35778;BME280;21899;42.662;23.316;2022-09-09T02:24:39;94614.16;;;17.68;91.65
35778;BME280;21899;42.662;23.316;2022-09-09T02:27:06;94603.72;;;17.67;91.49
35778;BME280;21899;42.662;23.316;2022-09-09T02:29:40;94609.06;;;17.70;91.79
35778;BME280;21899;42.662;23.316;2022-09-09T02:32:17;94619.31;;;17.63;92.55
35778;BME280;21899;42.662;23.316;2022-09-09T02:34:49;94620.56;;;17.58;92.82
35778;BME280;21899;42.662;23.316;2022-09-09T02:37:18;94616.00;;;17.55;93.52
35778;BME280;21899;42.662;23.316;2022-09-09T02:39:46;94622.94;;;17.56;94.47
35778;BME280;21899;42.662;23.316;2022-09-09T02:42:12;94630.03;;;17.50;95.10
35778;BME280;21899;42.662;23.316;2022-09-09T02:44:40;94630.38;;;17.52;94.74
35778;BME280;21899;42.662;23.316;2022-09-09T02:50:13;94641.28;;;17.49;94.96
35778;BME280;21899;42.662;23.316;2022-09-09T02:56:15;94637.44;;;17.30;95.69
35778;BME280;21899;42.662;23.316;2022-09-09T02:58:41;94630.41;;;17.33;95.39
35778;BME280;21899;42.662;23.316;2022-09-09T03:01:07;94627.19;;;17.38;94.87
35778;BME280;21899;42.662;23.316;2022-09-09T03:03:34;94639.53;;;17.39;94.03
35778;BME280;21899;42.662;23.316;2022-09-09T03:06:00;94626.59;;;17.30;94.53
35778;BME280;21899;42.662;23.316;2022-09-09T03:08:25;94628.13;;;17.31;94.13
35778;BME280;21899;42.662;23.316;2022-09-09T03:10:54;94633.13;;;17.33;93.81
35778;BME280;21899;42.662;23.316;2022-09-09T03:13:20;94633.31;;;17.06;95.08
35778;BME280;21899;42.662;23.316;2022-09-09T03:15:47;94642.47;;;17.12;94.75
35778;BME280;21899;42.662;23.316;2022-09-09T03:18:14;94639.06;;;17.08;94.22
35778;BME280;21899;42.662;23.316;2022-09-09T03:20:39;94635.53;;;17.11;94.07
35778;BME280;21899;42.662;23.316;2022-09-09T03:23:07;94640.94;;;17.11;93.36
35778;BME280;21899;42.662;23.316;2022-09-09T03:25:32;94637.22;;;17.05;93.81
35778;BME280;21899;42.662;23.316;2022-09-09T03:27:58;94632.16;;;17.07;94.37
35778;BME280;21899;42.662;23.316;2022-09-09T03:30:25;94628.19;;;17.12;93.87
35778;BME280;21899;42.662;23.316;2022-09-09T03:32:51;94636.56;;;17.17;93.45
35778;BME280;21899;42.662;23.316;2022-09-09T03:35:17;94623.78;;;17.18;93.29
35778;BME280;21899;42.662;23.316;2022-09-09T03:37:43;94634.53;;;17.21;92.48
35778;BME280;21899;42.662;23.316;2022-09-09T03:40:09;94629.03;;;17.25;91.79
35778;BME280;21899;42.662;23.316;2022-09-09T03:42:36;94625.91;;;17.26;91.88
35778;BME280;21899;42.662;23.316;2022-09-09T03:45:03;94626.06;;;17.19;92.31
35778;BME280;21899;42.662;23.316;2022-09-09T03:47:29;94617.28;;;17.15;92.52
35778;BME280;21899;42.662;23.316;2022-09-09T03:49:55;94626.09;;;17.00;94.91
35778;BME280;21899;42.662;23.316;2022-09-09T03:52:20;94632.84;;;16.91;95.31
35778;BME280;21899;42.662;23.316;2022-09-09T03:54:47;94640.19;;;16.91;95.86
35778;BME280;21899;42.662;23.316;2022-09-09T03:57:13;94643.81;;;16.84;96.94
35778;BME280;21899;42.662;23.316;2022-09-09T03:59:41;94642.75;;;16.98;95.97
35778;BME280;21899;42.662;23.316;2022-09-09T04:02:07;94642.34;;;16.80;96.95
35778;BME280;21899;42.662;23.316;2022-09-09T04:04:32;94651.56;;;16.82;97.69
35778;BME280;21899;42.662;23.316;2022-09-09T04:06:58;94650.09;;;16.98;96.86
35778;BME280;21899;42.662;23.316;2022-09-09T04:09:23;94645.81;;;17.00;96.63
35778;BME280;21899;42.662;23.316;2022-09-09T04:11:49;94642.72;;;16.82;97.42
35778;BME280;21899;42.662;23.316;2022-09-09T04:14:15;94645.94;;;16.93;97.10
35778;BME280;21899;42.662;23.316;2022-09-09T04:16:40;94642.97;;;17.07;96.42
35778;BME280;21899;42.662;23.316;2022-09-09T04:19:11;94640.41;;;17.00;96.25
35778;BME280;21899;42.662;23.316;2022-09-09T04:21:39;94639.97;;;17.02;96.35
35778;BME280;21899;42.662;23.316;2022-09-09T04:24:06;94641.13;;;17.20;95.65
35778;BME280;21899;42.662;23.316;2022-09-09T04:26:31;94640.13;;;17.30;94.53
35778;BME280;21899;42.662;23.316;2022-09-09T04:28:57;94638.72;;;17.42;94.30
35778;BME280;21899;42.662;23.316;2022-09-09T04:31:23;94640.03;;;17.53;93.37
35778;BME280;21899;42.662;23.316;2022-09-09T04:33:52;94648.66;;;17.64;92.66
35778;BME280;21899;42.662;23.316;2022-09-09T04:36:18;94639.69;;;17.51;92.07
35778;BME280;21899;42.662;23.316;2022-09-09T04:38:45;94647.97;;;17.60;91.39
35778;BME280;21899;42.662;23.316;2022-09-09T04:41:11;94654.56;;;17.75;90.46
35778;BME280;21899;42.662;23.316;2022-09-09T04:43:38;94652.97;;;17.94;89.54
35778;BME280;21899;42.662;23.316;2022-09-09T04:46:03;94659.50;;;17.96;89.49
35778;BME280;21899;42.662;23.316;2022-09-09T04:48:29;94657.28;;;18.07;89.12
35778;BME280;21899;42.662;23.316;2022-09-09T04:51:00;94644.25;;;18.02;89.51
35778;BME280;21899;42.662;23.316;2022-09-09T04:53:26;94637.97;;;18.05;89.05
35778;BME280;21899;42.662;23.316;2022-09-09T04:56:13;94640.50;;;18.12;88.57
35778;BME280;21899;42.662;23.316;2022-09-09T04:58:40;94632.59;;;17.89;89.35
35778;BME280;21899;42.662;23.316;2022-09-09T05:01:26;94635.53;;;17.63;90.53
35778;BME280;21899;42.662;23.316;2022-09-09T05:03:52;94637.06;;;17.64;91.24
35778;BME280;21899;42.662;23.316;2022-09-09T05:06:20;94628.28;;;17.60;90.51
35778;BME280;21899;42.662;23.316;2022-09-09T05:08:45;94610.31;;;17.82;89.53
35778;BME280;21899;42.662;23.316;2022-09-09T05:11:22;94611.25;;;17.75;90.55
35778;BME280;21899;42.662;23.316;2022-09-09T05:13:49;94623.34;;;17.87;89.97
35778;BME280;21899;42.662;23.316;2022-09-09T05:16:16;94634.84;;;18.07;87.91
35778;BME280;21899;42.662;23.316;2022-09-09T05:18:43;94631.28;;;18.10;87.58
35778;BME280;21899;42.662;23.316;2022-09-09T05:21:09;94631.00;;;18.20;86.56
35778;BME280;21899;42.662;23.316;2022-09-09T05:23:35;94616.34;;;18.34;85.20
35778;BME280;21899;42.662;23.316;2022-09-09T05:26:01;94618.75;;;18.16;86.15
35778;BME280;21899;42.662;23.316;2022-09-09T05:28:28;94624.69;;;17.95;87.90
35778;BME280;21899;42.662;23.316;2022-09-09T05:30:58;94622.28;;;17.68;90.59
35778;BME280;21899;42.662;23.316;2022-09-09T05:33:24;94624.88;;;17.88;89.04
35778;BME280;21899;42.662;23.316;2022-09-09T05:35:58;94616.00;;;17.87;87.85
35778;BME280;21899;42.662;23.316;2022-09-09T05:38:24;94625.97;;;17.90;87.87
35778;BME280;21899;42.662;23.316;2022-09-09T05:40:51;94618.50;;;18.10;86.41
35778;BME280;21899;42.662;23.316;2022-09-09T05:43:20;94625.88;;;17.94;86.80
35778;BME280;21899;42.662;23.316;2022-09-09T05:45:48;94618.66;;;18.19;85.17
35778;BME280;21899;42.662;23.316;2022-09-09T05:48:27;94632.56;;;18.50;83.88
35778;BME280;21899;42.662;23.316;2022-09-09T05:50:53;94641.75;;;18.69;82.23
35778;BME280;21899;42.662;23.316;2022-09-09T05:53:19;94625.94;;;18.80;80.34
35778;BME280;21899;42.662;23.316;2022-09-09T05:55:45;94624.44;;;18.79;79.57
35778;BME280;21899;42.662;23.316;2022-09-09T05:58:11;94622.31;;;18.99;78.08
35778;BME280;21899;42.662;23.316;2022-09-09T06:00:36;94629.38;;;19.21;77.02
35778;BME280;21899;42.662;23.316;2022-09-09T06:03:03;94628.13;;;19.38;76.78
35778;BME280;21899;42.662;23.316;2022-09-09T06:05:29;94644.63;;;19.44;75.55
35778;BME280;21899;42.662;23.316;2022-09-09T06:07:55;94638.31;;;19.47;74.27
35778;BME280;21899;42.662;23.316;2022-09-09T06:10:21;94645.91;;;19.52;74.16
35778;BME280;21899;42.662;23.316;2022-09-09T06:12:46;94647.00;;;19.67;74.28
35778;BME280;21899;42.662;23.316;2022-09-09T06:15:12;94643.41;;;19.70;72.28
35778;BME280;21899;42.662;23.316;2022-09-09T06:17:37;94638.75;;;19.83;73.30
35778;BME280;21899;42.662;23.316;2022-09-09T06:20:04;94645.88;;;20.15;73.86
35778;BME280;21899;42.662;23.316;2022-09-09T06:22:30;94639.31;;;20.25;73.78
35778;BME280;21899;42.662;23.316;2022-09-09T06:24:55;94637.19;;;20.41;72.36
35778;BME280;21899;42.662;23.316;2022-09-09T06:27:21;94646.56;;;20.40;71.87
35778;BME280;21899;42.662;23.316;2022-09-09T06:29:46;94643.53;;;20.38;72.18
35778;BME280;21899;42.662;23.316;2022-09-09T06:32:11;94652.59;;;20.57;71.58
35778;BME280;21899;42.662;23.316;2022-09-09T06:34:37;94643.34;;;20.76;70.76
35778;BME280;21899;42.662;23.316;2022-09-09T06:37:02;94641.16;;;20.84;69.65
35778;BME280;21899;42.662;23.316;2022-09-09T06:39:28;94641.41;;;20.77;69.11
35778;BME280;21899;42.662;23.316;2022-09-09T06:41:53;94622.94;;;20.93;66.92
35778;BME280;21899;42.662;23.316;2022-09-09T06:44:19;94635.91;;;21.11;66.06
35778;BME280;21899;42.662;23.316;2022-09-09T06:46:45;94635.97;;;21.20;63.45
35778;BME280;21899;42.662;23.316;2022-09-09T06:49:13;94634.81;;;21.30;63.72
35778;BME280;21899;42.662;23.316;2022-09-09T06:51:39;94643.50;;;21.46;63.18
35778;BME280;21899;42.662;23.316;2022-09-09T06:54:12;94639.56;;;21.47;63.59
35778;BME280;21899;42.662;23.316;2022-09-09T06:56:40;94643.38;;;21.50;63.64
35778;BME280;21899;42.662;23.316;2022-09-09T06:59:07;94651.56;;;21.59;63.79
35778;BME280;21899;42.662;23.316;2022-09-09T07:01:39;94655.84;;;21.60;63.03
35778;BME280;21899;42.662;23.316;2022-09-09T07:04:06;94652.38;;;21.68;62.83
35778;BME280;21899;42.662;23.316;2022-09-09T07:06:45;94654.91;;;21.84;61.54
35778;BME280;21899;42.662;23.316;2022-09-09T07:09:13;94647.38;;;21.67;62.14
35778;BME280;21899;42.662;23.316;2022-09-09T07:11:45;94654.56;;;21.82;62.20
35778;BME280;21899;42.662;23.316;2022-09-09T07:14:11;94646.72;;;21.84;62.10
35778;BME280;21899;42.662;23.316;2022-09-09T07:16:42;94635.84;;;22.03;61.98
35778;BME280;21899;42.662;23.316;2022-09-09T07:19:07;94637.06;;;22.02;60.70
35778;BME280;21899;42.662;23.316;2022-09-09T07:21:33;94637.19;;;21.89;61.71
35778;BME280;21899;42.662;23.316;2022-09-09T07:23:59;94642.69;;;22.07;61.17
35778;BME280;21899;42.662;23.316;2022-09-09T07:26:27;94633.59;;;22.01;61.58
35778;BME280;21899;42.662;23.316;2022-09-09T07:28:54;94633.75;;;22.25;60.53
35778;BME280;21899;42.662;23.316;2022-09-09T07:31:25;94636.31;;;22.10;60.25
35778;BME280;21899;42.662;23.316;2022-09-09T07:33:51;94638.19;;;22.40;59.99
35778;BME280;21899;42.662;23.316;2022-09-09T07:36:25;94625.44;;;22.46;59.53
35778;BME280;21899;42.662;23.316;2022-09-09T07:38:59;94637.16;;;22.65;58.11
35778;BME280;21899;42.662;23.316;2022-09-09T07:44:07;94644.25;;;22.89;57.93
35778;BME280;21899;42.662;23.316;2022-09-09T07:46:34;94640.94;;;22.85;57.65
35778;BME280;21899;42.662;23.316;2022-09-09T07:48:59;94647.56;;;23.02;57.50
35778;BME280;21899;42.662;23.316;2022-09-09T07:51:29;94647.28;;;23.18;56.08
35778;BME280;21899;42.662;23.316;2022-09-09T07:53:57;94654.53;;;23.12;55.95
35778;BME280;21899;42.662;23.316;2022-09-09T07:56:24;94639.19;;;23.24;56.04
35778;BME280;21899;42.662;23.316;2022-09-09T07:58:51;94643.75;;;23.45;55.48
35778;BME280;21899;42.662;23.316;2022-09-09T08:01:29;94639.66;;;23.22;54.85
35778;BME280;21899;42.662;23.316;2022-09-09T08:04:04;94632.81;;;23.45;54.57
35778;BME280;21899;42.662;23.316;2022-09-09T08:06:34;94644.81;;;23.39;54.29
35778;BME280;21899;42.662;23.316;2022-09-09T08:09:00;94648.84;;;23.61;53.99
35778;BME280;21899;42.662;23.316;2022-09-09T08:11:28;94637.44;;;23.95;53.47
35778;BME280;21899;42.662;23.316;2022-09-09T08:13:54;94636.97;;;23.97;53.39
35778;BME280;21899;42.662;23.316;2022-09-09T08:16:25;94635.78;;;23.98;53.11
35778;BME280;21899;42.662;23.316;2022-09-09T08:18:52;94629.41;;;24.01;52.53
35778;BME280;21899;42.662;23.316;2022-09-09T08:21:21;94632.53;;;24.32;51.36
35778;BME280;21899;42.662;23.316;2022-09-09T08:23:51;94629.66;;;24.50;51.51
35778;BME280;21899;42.662;23.316;2022-09-09T08:26:22;94639.50;;;24.33;50.38
35778;BME280;21899;42.662;23.316;2022-09-09T08:28:53;94635.31;;;24.23;50.95
35778;BME280;21899;42.662;23.316;2022-09-09T08:33:49;94630.66;;;24.38;50.48
35778;BME280;21899;42.662;23.316;2022-09-09T08:36:18;94631.59;;;24.59;49.75
35778;BME280;21899;42.662;23.316;2022-09-09T08:38:51;94635.09;;;24.59;49.73
35778;BME280;21899;42.662;23.316;2022-09-09T08:41:41;94642.91;;;24.90;48.04
35778;BME280;21899;42.662;23.316;2022-09-09T08:50:35;94627.63;;;25.12;46.16
35778;BME280;21899;42.662;23.316;2022-09-09T08:53:05;94632.06;;;25.24;46.81
35778;BME280;21899;42.662;23.316;2022-09-09T08:55:39;94630.31;;;25.65;46.12
35778;BME280;21899;42.662;23.316;2022-09-09T08:58:16;94627.28;;;25.98;45.02
35778;BME280;21899;42.662;23.316;2022-09-09T09:01:11;94630.13;;;25.39;44.78
35778;BME280;21899;42.662;23.316;2022-09-09T09:09:30;94628.81;;;25.35;44.52
35778;BME280;21899;42.662;23.316;2022-09-09T09:12:05;94626.13;;;25.69;44.06
35778;BME280;21899;42.662;23.316;2022-09-09T09:14:34;94631.03;;;25.65;43.96
35778;BME280;21899;42.662;23.316;2022-09-09T09:19:41;94627.44;;;25.30;45.26
35778;BME280;21899;42.662;23.316;2022-09-09T09:22:35;94623.13;;;25.53;44.88
35778;BME280;21899;42.662;23.316;2022-09-09T09:25:23;94626.94;;;25.76;44.06
35778;BME280;21899;42.662;23.316;2022-09-09T09:27:55;94624.22;;;25.76;43.74
35778;BME280;21899;42.662;23.316;2022-09-09T09:30:26;94619.59;;;25.82;43.66
35778;BME280;21899;42.662;23.316;2022-09-09T09:35:42;94627.25;;;25.78;43.81
35778;BME280;21899;42.662;23.316;2022-09-09T09:38:18;94622.81;;;26.00;43.40
35778;BME280;21899;42.662;23.316;2022-09-09T09:40:55;94622.88;;;25.86;44.10
35778;BME280;21899;42.662;23.316;2022-09-09T09:45:54;94605.13;;;26.36;43.85
35778;BME280;21899;42.662;23.316;2022-09-09T09:48:20;94600.72;;;26.44;42.65
35778;BME280;21899;42.662;23.316;2022-09-09T09:53:21;94597.00;;;26.87;41.70
35778;BME280;21899;42.662;23.316;2022-09-09T09:56:10;94603.56;;;26.95;42.24
35778;BME280;21899;42.662;23.316;2022-09-09T10:01:26;94593.72;;;27.09;42.27
35778;BME280;21899;42.662;23.316;2022-09-09T10:06:43;94597.81;;;26.93;41.52
35778;BME280;21899;42.662;23.316;2022-09-09T10:09:30;94599.09;;;26.72;42.60
35778;BME280;21899;42.662;23.316;2022-09-09T10:31:17;94612.41;;;26.79;42.01
35778;BME280;21899;42.662;23.316;2022-09-09T10:36:20;94608.81;;;26.53;44.02
35778;BME280;21899;42.662;23.316;2022-09-09T10:38:48;94609.25;;;26.46;43.78
35778;BME280;21899;42.662;23.316;2022-09-09T10:55:02;94621.44;;;26.65;42.89
35778;BME280;21899;42.662;23.316;2022-09-09T11:00:06;94609.09;;;26.35;43.91
35778;BME280;21899;42.662;23.316;2022-09-09T11:02:34;94619.53;;;26.31;44.51
35778;BME280;21899;42.662;23.316;2022-09-09T11:05:08;94606.78;;;26.28;44.37
35778;BME280;21899;42.662;23.316;2022-09-09T11:13:46;94614.13;;;26.16;45.82
35778;BME280;21899;42.662;23.316;2022-09-09T11:16:29;94613.34;;;26.16;45.68
35778;BME280;21899;42.662;23.316;2022-09-09T11:19:07;94610.88;;;26.18;45.74
35778;BME280;21899;42.662;23.316;2022-09-09T11:21:46;94594.56;;;26.29;45.72
35778;BME280;21899;42.662;23.316;2022-09-09T11:26:50;94600.59;;;26.33;46.11
35778;BME280;21899;42.662;23.316;2022-09-09T11:33:03;94589.63;;;26.13;46.91
35778;BME280;21899;42.662;23.316;2022-09-09T11:38:26;94575.75;;;26.02;47.29
35778;BME280;21899;42.662;23.316;2022-09-09T11:40:58;94562.78;;;26.02;48.08
35778;BME280;21899;42.662;23.316;2022-09-09T11:43:41;94547.91;;;26.09;47.43
35778;BME280;21899;42.662;23.316;2022-09-09T11:46:08;94548.47;;;26.33;48.43
35778;BME280;21899;42.662;23.316;2022-09-09T11:51:08;94524.47;;;26.73;47.69
35778;BME280;21899;42.662;23.316;2022-09-09T11:53:55;94518.88;;;26.42;47.61
35778;BME280;21899;42.662;23.316;2022-09-09T11:56:32;94529.38;;;26.44;48.04
35778;BME280;21899;42.662;23.316;2022-09-09T11:59:20;94528.09;;;26.65;46.80
35778;BME280;21899;42.662;23.316;2022-09-09T12:01:54;94526.16;;;26.71;46.80
35778;BME280;21899;42.662;23.316;2022-09-09T12:09:50;94536.16;;;27.25;45.35
35778;BME280;21899;42.662;23.316;2022-09-09T12:12:26;94517.19;;;26.70;46.80
35778;BME280;21899;42.662;23.316;2022-09-09T12:17:45;94511.97;;;26.72;47.18
35778;BME280;21899;42.662;23.316;2022-09-09T12:20:23;94517.53;;;27.09;46.77
35778;BME280;21899;42.662;23.316;2022-09-09T12:28:22;94509.19;;;27.60;45.20
35778;BME280;21899;42.662;23.316;2022-09-09T12:33:37;94495.97;;;27.64;45.12
35778;BME280;21899;42.662;23.316;2022-09-09T12:36:11;94500.47;;;27.31;45.94
35778;BME280;21899;42.662;23.316;2022-09-09T12:38:40;94494.84;;;27.45;45.60
35778;BME280;21899;42.662;23.316;2022-09-09T12:41:06;94481.13;;;27.45;45.42
35778;BME280;21899;42.662;23.316;2022-09-09T12:43:44;94484.97;;;27.28;46.25
35778;BME280;21899;42.662;23.316;2022-09-09T12:46:35;94491.38;;;27.50;45.87
35778;BME280;21899;42.662;23.316;2022-09-09T12:49:01;94492.44;;;27.58;45.35
35778;BME280;21899;42.662;23.316;2022-09-09T12:51:30;94484.91;;;27.59;45.22
35778;BME280;21899;42.662;23.316;2022-09-09T12:53:56;94488.25;;;27.74;45.89
35778;BME280;21899;42.662;23.316;2022-09-09T12:56:33;94487.75;;;27.70;45.03
35778;BME280;21899;42.662;23.316;2022-09-09T12:58:59;94470.84;;;27.88;45.00
35778;BME280;21899;42.662;23.316;2022-09-09T13:01:26;94457.88;;;27.46;45.81
35778;BME280;21899;42.662;23.316;2022-09-09T13:03:53;94466.34;;;27.43;45.43
35778;BME280;21899;42.662;23.316;2022-09-09T13:06:24;94466.78;;;27.30;46.18
35778;BME280;21899;42.662;23.316;2022-09-09T13:08:55;94466.81;;;27.41;46.01
35778;BME280;21899;42.662;23.316;2022-09-09T13:11:38;94451.97;;;27.64;45.53
35778;BME280;21899;42.662;23.316;2022-09-09T13:14:15;94455.03;;;27.77;44.97
35778;BME280;21899;42.662;23.316;2022-09-09T13:16:53;94459.03;;;27.34;46.53
35778;BME280;21899;42.662;23.316;2022-09-09T13:19:19;94451.00;;;27.31;45.84
35778;BME280;21899;42.662;23.316;2022-09-09T13:21:46;94455.84;;;27.10;46.58
35778;BME280;21899;42.662;23.316;2022-09-09T13:24:41;94456.38;;;27.45;46.37
35778;BME280;21899;42.662;23.316;2022-09-09T13:27:27;94458.03;;;27.37;46.08
35778;BME280;21899;42.662;23.316;2022-09-09T13:29:54;94443.56;;;27.37;45.83
35778;BME280;21899;42.662;23.316;2022-09-09T13:32:23;94435.44;;;27.22;46.85
35778;BME280;21899;42.662;23.316;2022-09-09T13:34:57;94428.84;;;26.72;47.20
35778;BME280;21899;42.662;23.316;2022-09-09T13:37:35;94423.44;;;26.32;49.15
35778;BME280;21899;42.662;23.316;2022-09-09T13:40:03;94419.31;;;25.96;50.92
35778;BME280;21899;42.662;23.316;2022-09-09T13:42:32;94421.13;;;26.25;50.08
35778;BME280;21899;42.662;23.316;2022-09-09T13:45:00;94425.00;;;26.38;49.37
35778;BME280;21899;42.662;23.316;2022-09-09T13:47:36;94417.47;;;26.59;48.72
35778;BME280;21899;42.662;23.316;2022-09-09T13:50:25;94414.84;;;26.70;49.00
35778;BME280;21899;42.662;23.316;2022-09-09T13:52:56;94423.06;;;26.70;49.45
35778;BME280;21899;42.662;23.316;2022-09-09T13:55:25;94427.19;;;26.60;49.32
35778;BME280;21899;42.662;23.316;2022-09-09T13:57:57;94417.63;;;26.50;49.13
35778;BME280;21899;42.662;23.316;2022-09-09T14:00:23;94426.13;;;26.52;49.14
35778;BME280;21899;42.662;23.316;2022-09-09T14:02:52;94418.31;;;26.39;49.62
35778;BME280;21899;42.662;23.316;2022-09-09T14:05:20;94417.13;;;26.51;49.48
35778;BME280;21899;42.662;23.316;2022-09-09T14:07:48;94421.03;;;26.39;49.44
35778;BME280;21899;42.662;23.316;2022-09-09T14:10:14;94408.38;;;26.47;49.31
35778;BME280;21899;42.662;23.316;2022-09-09T14:12:39;94419.66;;;26.55;49.35
35778;BME280;21899;42.662;23.316;2022-09-09T14:15:06;94414.72;;;26.59;48.28
35778;BME280;21899;42.662;23.316;2022-09-09T14:17:32;94413.19;;;26.58;48.98
35778;BME280;21899;42.662;23.316;2022-09-09T14:19:58;94413.19;;;26.58;48.83
35778;BME280;21899;42.662;23.316;2022-09-09T14:22:24;94417.09;;;26.46;49.28
35778;BME280;21899;42.662;23.316;2022-09-09T14:24:50;94408.22;;;26.31;49.74
35778;BME280;21899;42.662;23.316;2022-09-09T14:27:16;94407.38;;;26.19;49.88
35778;BME280;21899;42.662;23.316;2022-09-09T14:29:43;94403.94;;;26.24;50.27
35778;BME280;21899;42.662;23.316;2022-09-09T14:32:09;94407.19;;;26.28;50.26
35778;BME280;21899;42.662;23.316;2022-09-09T14:34:35;94412.75;;;26.34;49.99
35778;BME280;21899;42.662;23.316;2022-09-09T14:37:00;94413.66;;;26.51;49.75
35778;BME280;21899;42.662;23.316;2022-09-09T14:39:26;94412.81;;;26.39;48.86
35778;BME280;21899;42.662;23.316;2022-09-09T14:41:51;94401.84;;;26.39;49.30
35778;BME280;21899;42.662;23.316;2022-09-09T14:44:17;94410.44;;;26.52;48.42
35778;BME280;21899;42.662;23.316;2022-09-09T14:46:44;94406.22;;;26.31;49.06
35778;BME280;21899;42.662;23.316;2022-09-09T14:49:09;94398.53;;;26.35;49.02
35778;BME280;21899;42.662;23.316;2022-09-09T14:51:38;94406.34;;;26.17;49.14
35778;BME280;21899;42.662;23.316;2022-09-09T14:54:04;94403.59;;;25.97;49.96
35778;BME280;21899;42.662;23.316;2022-09-09T14:56:32;94402.09;;;25.96;50.24
35778;BME280;21899;42.662;23.316;2022-09-09T14:59:00;94397.59;;;25.93;50.12
35778;BME280;21899;42.662;23.316;2022-09-09T15:01:30;94414.47;;;26.06;50.21
35778;BME280;21899;42.662;23.316;2022-09-09T15:03:58;94413.56;;;26.14;50.03
35778;BME280;21899;42.662;23.316;2022-09-09T15:06:27;94422.00;;;26.11;49.07
35778;BME280;21899;42.662;23.316;2022-09-09T15:08:55;94424.31;;;26.18;49.78
35778;BME280;21899;42.662;23.316;2022-09-09T15:11:24;94424.91;;;26.27;49.50
35778;BME280;21899;42.662;23.316;2022-09-09T15:13:51;94431.91;;;26.28;49.14
35778;BME280;21899;42.662;23.316;2022-09-09T15:16:19;94437.97;;;26.38;48.86
35778;BME280;21899;42.662;23.316;2022-09-09T15:18:46;94431.78;;;26.43;48.43
35778;BME280;21899;42.662;23.316;2022-09-09T15:21:14;94433.09;;;26.47;48.84
35778;BME280;21899;42.662;23.316;2022-09-09T15:23:41;94431.56;;;26.46;48.46
35778;BME280;21899;42.662;23.316;2022-09-09T15:26:07;94430.13;;;26.51;48.68
35778;BME280;21899;42.662;23.316;2022-09-09T15:28:34;94420.50;;;26.61;48.04